This is the latest recevied telemetry packets stored in our database for station/object DK6MM-99. If no packets are shown the sender has not sent any telemetry packets the latest 10 day(s).
Telemetry packets is used to share measurements like repeteater parameters, battery voltage, radiation readings (or any other measurements).
| Time | Press* | Temp.in* | Hum* | QNH* | Temp.out* |
|---|---|---|---|---|---|
| 1788561059 | 965.2 hPa | 16.3 C deg | 76.4 % | 1018 hPa | 0 C deg |
| 1788557429 | 964.4 hPa | 17 C deg | 78 % | 1017.1 hPa | 0 C deg |
| 1788555615 | 963.2 hPa | 20 C deg | 75.6 % | 1015.2 hPa | 0 C deg |
| 1788551983 | 961.9 hPa | 23 C deg | 72.2 % | 1013.3 hPa | 0 C deg |
| 1788548359 | 961.4 hPa | 23.5 C deg | 72.4 % | 1012.7 hPa | 0 C deg |
| 1788542941 | 961 hPa | 24.5 C deg | 73.9 % | 1012.1 hPa | 0 C deg |
| 1788539278 | 961.2 hPa | 25.8 C deg | 73 % | 1012.1 hPa | 0 C deg |
| 1788537472 | 961.4 hPa | 25.3 C deg | 75 % | 1012.4 hPa | 0 C deg |
| 1788535655 | 961.3 hPa | 26.3 C deg | 73.5 % | 1012.1 hPa | 0 C deg |
| 1788533836 | 961.4 hPa | 26.6 C deg | 73.2 % | 1012.1 hPa | 0 C deg |
| 1788532023 | 961.5 hPa | 26.4 C deg | 75.7 % | 1012.4 hPa | 0 C deg |
| 1788528387 | 962.1 hPa | 26.8 C deg | 74.5 % | 1012.9 hPa | 0 C deg |
| 1788526572 | 962.6 hPa | 24.6 C deg | 78 % | 1013.8 hPa | 0 C deg |
| 1788522942 | 963.7 hPa | 23 C deg | 80.2 % | 1015.3 hPa | 0 C deg |
| 1788519343 | 964.2 hPa | 22.1 C deg | 81.9 % | 1016 hPa | 0 C deg |
| 1788519312 | 964.2 hPa | 22.1 C deg | 81.9 % | 1016 hPa | 0 C deg |
| 1788517497 | 964.3 hPa | 24 C deg | 81 % | 1015.7 hPa | 0 C deg |
| 1788515686 | 964.7 hPa | 22.6 C deg | 82 % | 1016.4 hPa | 0 C deg |
| 1788510237 | 965.3 hPa | 20.4 C deg | 84.7 % | 1017.4 hPa | 0 C deg |
| 1788508422 | 965.7 hPa | 19 C deg | 85.3 % | 1018 hPa | 0 C deg |
| 1788506607 | 966.2 hPa | 18.4 C deg | 85.3 % | 1018.7 hPa | 0 C deg |
| 1788504792 | 966.5 hPa | 17.1 C deg | 86.2 % | 1019.2 hPa | 0 C deg |
| 1788502977 | 966.2 hPa | 16.5 C deg | 86.3 % | 1019.1 hPa | 0 C deg |
| 1788501166 | 966.2 hPa | 15.8 C deg | 86.7 % | 1019.2 hPa | 0 C deg |
| 1788497536 | 966.5 hPa | 15.4 C deg | 86.6 % | 1019.6 hPa | 0 C deg |